Time;durP1;ratioP1;P1;durP2;ratioP2;P2;SDS_P1;SDS_P2;PMS_P1;PMS_P2;Temp;Humidity;BMP_temperature;BMP_pressure;BME280_temperature;BME280_humidity;BME280_pressure;Samples;Min_cycle;Max_cycle;Signal;HPM_P1;HPM_P2
2021/01/24 00:00:41;;;;;;;34.47;17.93;;;;;;;5.41;100.00;93480.03;10537275;28;20486;-75
2021/01/24 00:05:45;;;;;;;36.20;19.27;;;;;;;5.48;100.00;93484.03;10537648;28;20527;-75
2021/01/24 00:10:46;;;;;;;38.97;19.77;;;;;;;5.33;100.00;93478.75;10536517;28;20298;-75
2021/01/24 00:15:46;;;;;;;28.97;16.10;;;;;;;5.51;100.00;93474.66;10518996;28;20134;-75
2021/01/24 00:20:47;;;;;;;1.70;1.10;;;;;;;5.86;100.00;93456.94;10536983;28;20044;-75
2021/01/24 00:25:47;;;;;;;1.70;0.60;;;;;;;6.45;100.00;93457.13;10539656;28;20345;-84
2021/01/24 00:30:49;;;;;;;17.63;10.75;;;;;;;6.75;100.00;93473.97;10541417;28;20024;-80
2021/01/24 00:35:49;;;;;;;16.90;8.93;;;;;;;6.60;100.00;93473.03;10540800;28;20082;-81
2021/01/24 00:40:50;;;;;;;24.17;11.43;;;;;;;6.77;100.00;93469.94;10540738;28;20433;-81
2021/01/24 00:45:50;;;;;;;15.88;8.00;;;;;;;6.55;100.00;93478.41;10539306;28;20556;-82
2021/01/24 00:50:51;;;;;;;18.35;8.60;;;;;;;6.47;100.00;93477.13;10538516;28;20077;-81
2021/01/24 00:55:51;;;;;;;12.50;6.35;;;;;;;6.54;100.00;93468.00;10539918;28;20099;-81
2021/01/24 01:00:52;;;;;;;11.50;6.20;;;;;;;6.51;100.00;93464.00;10521366;28;20498;-81
2021/01/24 01:05:52;;;;;;;15.35;6.68;;;;;;;6.64;100.00;93466.06;10539823;28;20495;-82
2021/01/24 01:10:52;;;;;;;18.80;9.88;;;;;;;6.68;100.00;93492.97;10539449;28;20060;-82
2021/01/24 01:15:53;;;;;;;30.17;13.80;;;;;;;6.59;100.00;93484.00;10539098;28;20056;-81
2021/01/24 01:20:53;;;;;;;21.00;10.10;;;;;;;6.65;100.00;93456.94;10520480;28;20351;-81
2021/01/24 01:25:54;;;;;;;19.37;10.67;;;;;;;6.79;100.00;93469.66;10537372;28;20027;-81
2021/01/24 01:30:55;;;;;;;15.25;6.70;;;;;;;6.88;100.00;93462.66;10538736;28;20270;-81
2021/01/24 01:35:55;;;;;;;13.03;6.93;;;;;;;7.01;100.00;93486.00;10538532;28;20515;-80
2021/01/24 01:40:55;;;;;;;14.17;6.70;;;;;;;6.94;100.00;93464.19;10520312;28;20285;-80
2021/01/24 01:45:56;;;;;;;9.93;5.37;;;;;;;6.95;100.00;93460.44;10538038;28;20050;-80
2021/01/24 01:50:57;;;;;;;7.57;3.72;;;;;;;6.98;100.00;93457.19;10537787;28;20028;-81
2021/01/24 01:55:57;;;;;;;5.57;3.15;;;;;;;7.02;100.00;93438.75;10537704;28;20384;-81
2021/01/24 02:00:58;;;;;;;2.80;2.07;;;;;;;7.13;100.00;93444.75;10537509;28;20509;-81
2021/01/24 02:06:37;;;;;;;1.25;1.00;;;;;;;7.29;100.00;93464.13;10519076;28;20768;-81
2021/01/24 02:11:51;;;;;;;8.80;3.40;;;;;;;7.36;100.00;93470.69;10494711;28;20032;-81
2021/01/24 02:16:54;;;;;;;2.15;0.47;;;;;;;7.81;100.00;93458.97;10534021;28;20021;-80
2021/01/24 02:21:55;;;;;;;11.80;5.18;;;;;;;7.81;100.00;93475.78;10494703;28;20044;-80
2021/01/24 02:27:20;;;;;;;6.70;3.85;;;;;;;7.62;100.00;93469.63;10494468;28;20411;-81
2021/01/24 02:32:23;;;;;;;8.98;4.28;;;;;;;7.51;100.00;93453.69;10476834;28;20021;-81
2021/01/24 02:37:24;;;;;;;8.70;4.65;;;;;;;7.34;100.00;93440.03;10476442;28;20020;-81
2021/01/24 02:42:26;;;;;;;11.63;5.72;;;;;;;7.32;100.00;93464.34;10509830;28;20498;-81
2021/01/24 02:47:28;;;;;;;7.18;4.43;;;;;;;7.27;100.00;93443.03;10494069;28;20013;-82
2021/01/24 02:52:29;;;;;;;7.40;4.10;;;;;;;7.06;100.00;93455.00;10493518;28;20017;-81
2021/01/24 02:57:31;;;;;;;4.40;2.85;;;;;;;6.98;100.00;93449.19;10493709;28;20032;-81
2021/01/24 03:02:31;;;;;;;1.90;1.20;;;;;;;7.08;100.00;93463.53;10493367;28;20029;-80
2021/01/24 03:07:32;;;;;;;1.38;1.08;;;;;;;7.19;100.00;93459.69;10475269;28;20026;-80
2021/01/24 03:12:38;;;;;;;1.75;1.20;;;;;;;7.16;100.00;93447.69;10493717;28;20033;-80
2021/01/24 03:17:39;;;;;;;2.05;1.05;;;;;;;7.30;100.00;93441.66;10493365;28;20380;-81
2021/01/24 03:22:41;;;;;;;1.80;1.00;;;;;;;7.19;100.00;93449.00;10489019;28;20049;-82
2021/01/24 03:27:43;;;;;;;1.60;1.10;;;;;;;7.20;100.00;93450.59;10473066;28;20074;-81
2021/01/24 03:32:43;;;;;;;1.95;0.77;;;;;;;7.27;100.00;93440.34;10489089;28;20472;-80
2021/01/24 03:37:43;;;;;;;2.40;0.95;;;;;;;7.44;100.00;93439.09;10492603;28;20020;-80
2021/01/24 03:42:44;;;;;;;0.80;0.73;;;;;;;7.40;98.37;93460.25;10490542;28;20031;-81
2021/01/24 03:47:44;;;;;;;1.40;1.20;;;;;;;7.34;100.00;93469.41;10490584;28;20353;-80
2021/01/24 03:52:45;;;;;;;2.07;0.90;;;;;;;7.07;100.00;93461.94;10492572;28;20170;-80
2021/01/24 03:57:45;;;;;;;2.13;1.73;;;;;;;6.94;100.00;93480.22;10492177;28;20028;-80
2021/01/24 04:02:45;;;;;;;5.60;3.30;;;;;;;6.82;100.00;93485.13;10492237;28;20118;-81
2021/01/24 04:07:46;;;;;;;4.95;2.40;;;;;;;6.70;100.00;93484.69;10491800;28;20036;-81
2021/01/24 04:12:46;;;;;;;3.20;2.10;;;;;;;6.66;100.00;93481.78;10474276;28;20185;-79
2021/01/24 04:17:46;;;;;;;2.77;1.57;;;;;;;6.38;100.00;93492.13;10473262;28;20036;-79
2021/01/24 04:22:49;;;;;;;1.50;1.40;;;;;;;6.34;100.00;93485.75;10473052;28;20821;-79
2021/01/24 04:27:50;;;;;;;6.78;3.75;;;;;;;6.18;100.00;93517.06;10491463;28;20277;-79
2021/01/24 04:32:50;;;;;;;3.90;2.60;;;;;;;6.04;100.00;93524.88;10493224;28;20027;-79
2021/01/24 04:37:51;;;;;;;7.97;4.03;;;;;;;5.88;100.00;93502.78;10498462;28;20394;-80
2021/01/24 04:42:51;;;;;;;4.95;2.47;;;;;;;5.85;100.00;93491.84;10498309;28;20312;-79
2021/01/24 04:47:52;;;;;;;2.95;2.25;;;;;;;5.76;100.00;93505.78;10498368;28;20074;-79
2021/01/24 04:52:54;;;;;;;0.90;0.70;;;;;;;6.05;100.00;93497.13;10498038;28;20013;-80
2021/01/24 04:57:56;;;;;;;2.08;0.40;;;;;;;6.37;93.77;93511.09;10498060;28;20017;-81
2021/01/24 05:02:56;;;;;;;1.10;1.00;;;;;;;6.38;100.00;93499.31;10479829;28;20021;-80
2021/01/24 05:07:58;;;;;;;3.22;2.30;;;;;;;5.99;100.00;93517.69;10476970;28;20032;-74
2021/01/24 05:12:59;;;;;;;2.67;1.50;;;;;;;6.01;100.00;93517.41;10494309;28;20024;-82
2021/01/24 05:18:01;;;;;;;4.70;2.08;;;;;;;6.04;100.00;93524.88;10497050;28;20033;-82
2021/01/24 05:23:04;;;;;;;4.13;3.53;;;;;;;5.95;100.00;93516.63;10497230;28;20127;-81
2021/01/24 05:28:22;;;;;;;7.07;3.13;;;;;;;5.98;100.00;93532.09;10525531;28;20020;-81
2021/01/24 05:33:23;;;;;;;11.30;3.25;;;;;;;5.74;100.00;93542.56;10496850;28;20028;-80
2021/01/24 05:38:31;;;;;;;7.83;3.27;;;;;;;5.56;100.00;93559.94;10536412;28;20403;-81
2021/01/24 05:43:41;;;;;;;7.68;3.47;;;;;;;5.46;100.00;93554.66;10519930;28;20278;-80
2021/01/24 05:48:50;;;;;;;3.05;2.45;;;;;;;5.36;100.00;93560.78;10501869;28;20054;-80
2021/01/24 05:53:50;;;;;;;5.03;2.92;;;;;;;5.27;100.00;93549.06;10495097;28;20028;-79
2021/01/24 05:59:02;;;;;;;7.38;3.05;;;;;;;5.19;100.00;93568.25;10495135;28;20506;-79
2021/01/24 06:04:02;;;;;;;6.25;2.90;;;;;;;5.18;100.00;93554.16;10476939;28;20115;-81
2021/01/24 06:09:03;;;;;;;3.38;1.83;;;;;;;5.07;100.00;93571.22;10494898;28;20516;-79
2021/01/24 06:14:07;;;;;;;6.68;3.20;;;;;;;5.02;100.00;93581.84;10494278;28;20115;-80
2021/01/24 06:19:11;;;;;;;6.70;3.50;;;;;;;4.81;100.00;93570.41;10493653;28;20085;-74
2021/01/24 06:24:19;;;;;;;5.55;2.08;;;;;;;5.02;100.00;93592.50;10528080;28;20044;-74
2021/01/24 06:29:21;;;;;;;7.72;2.45;;;;;;;4.99;100.00;93614.34;10532297;28;20035;-74
2021/01/24 06:34:36;;;;;;;5.82;1.70;;;;;;;5.27;100.00;93603.16;10531412;28;20509;-74
2021/01/24 06:39:47;;;;;;;3.10;1.60;;;;;;;5.63;100.00;93613.75;10531035;28;20055;-74
2021/01/24 06:44:47;;;;;;;2.85;1.70;;;;;;;5.78;100.00;93622.81;10513802;28;20406;-74
2021/01/24 06:49:48;;;;;;;3.60;1.43;;;;;;;5.98;100.00;93632.63;10512584;28;20037;-74
2021/01/24 06:54:50;;;;;;;3.83;2.07;;;;;;;5.92;100.00;93665.72;10531017;28;20085;-74
2021/01/24 06:59:51;;;;;;;7.85;3.42;;;;;;;5.94;100.00;93661.69;10531481;28;20486;-74
2021/01/24 07:05:12;;;;;;;8.00;3.40;;;;;;;5.64;100.00;93652.69;10528521;28;20036;-76
2021/01/24 07:10:37;;;;;;;5.78;2.92;;;;;;;5.59;100.00;93662.56;10500948;28;20294;-74
2021/01/24 07:15:39;;;;;;;6.32;3.30;;;;;;;5.79;100.00;93657.19;10496908;28;20062;-73
2021/01/24 07:20:40;;;;;;;8.05;4.10;;;;;;;5.78;100.00;93631.59;10521294;28;20087;-73
2021/01/24 07:25:41;;;;;;;8.93;4.00;;;;;;;5.72;100.00;93656.69;10508440;28;20042;-74
2021/01/24 07:30:42;;;;;;;11.15;4.35;;;;;;;5.79;100.00;93646.53;10507533;28;20032;-73
2021/01/24 07:35:42;;;;;;;8.98;3.95;;;;;;;6.01;100.00;93664.09;10527090;28;20089;-73
2021/01/24 07:40:42;;;;;;;10.93;4.57;;;;;;;6.12;100.00;93678.22;10527217;28;20116;-74
2021/01/24 07:45:45;;;;;;;11.30;4.40;;;;;;;6.33;100.00;93678.94;10527635;28;20274;-77
2021/01/24 07:50:46;;;;;;;10.43;5.40;;;;;;;7.00;100.00;93676.78;10527971;28;20062;-76
2021/01/24 07:55:47;;;;;;;13.30;5.80;;;;;;;7.81;100.00;93686.31;10528196;28;20537;-75
2021/01/24 08:00:47;;;;;;;12.57;6.70;;;;;;;8.93;100.00;93680.03;10527554;28;20669;-75
2021/01/24 08:05:47;;;;;;;16.80;6.60;;;;;;;9.56;94.73;93692.28;10509844;28;20035;-77
2021/01/24 08:10:48;;;;;;;11.60;5.50;;;;;;;9.43;94.58;93698.38;10531579;28;20036;-76
2021/01/24 08:15:51;;;;;;;10.17;3.60;;;;;;;9.35;93.98;93699.81;10513632;28;20038;-78
2021/01/24 08:20:52;;;;;;;7.82;3.00;;;;;;;10.14;87.41;93717.09;10515017;28;20389;-77
2021/01/24 08:25:52;;;;;;;7.63;3.95;;;;;;;11.07;81.60;93726.91;10513650;28;20031;-77
2021/01/24 08:30:53;;;;;;;8.43;2.42;;;;;;;11.21;80.14;93716.91;10531847;28;20028;-78
2021/01/24 08:36:09;;;;;;;10.02;2.45;;;;;;;11.36;78.98;93709.59;10532373;28;20122;-77
2021/01/24 08:41:11;;;;;;;4.07;1.90;;;;;;;11.18;72.94;93706.00;10508844;28;20071;-76
2021/01/24 08:46:26;;;;;;;5.25;1.98;;;;;;;11.10;71.49;93705.59;10490596;28;20032;-76
2021/01/24 08:51:45;;;;;;;8.48;2.08;;;;;;;11.15;69.45;93707.38;10489004;28;20083;-76
2021/01/24 08:56:45;;;;;;;6.97;1.85;;;;;;;11.68;66.33;93697.88;10488670;28;20036;-76
2021/01/24 09:01:47;;;;;;;5.15;1.77;;;;;;;12.56;57.47;93712.66;10511521;28;20032;-75
2021/01/24 09:07:09;;;;;;;4.43;1.55;;;;;;;12.95;54.28;93700.25;10531600;28;20036;-76
2021/01/24 09:12:12;;;;;;;6.00;1.50;;;;;;;13.17;53.53;93714.75;10533529;28;20119;-76
2021/01/24 09:17:17;;;;;;;6.25;1.90;;;;;;;13.52;51.92;93716.72;10531773;28;20028;-76
2021/01/24 09:22:18;;;;;;;7.25;1.17;;;;;;;14.77;47.21;93715.13;10531809;28;20487;-76
2021/01/24 09:27:18;;;;;;;4.82;1.20;;;;;;;15.46;44.83;93708.56;10531546;28;20035;-75
2021/01/24 09:32:18;;;;;;;15.13;1.83;;;;;;;15.21;44.16;93713.81;10512409;28;20024;-76
2021/01/24 09:37:19;;;;;;;2.10;1.00;;;;;;;14.95;44.85;93699.63;10531127;28;20301;-76
2021/01/24 09:42:19;;;;;;;2.47;1.03;;;;;;;15.59;43.40;93678.84;10532111;28;20032;-76
2021/01/24 09:47:20;;;;;;;5.90;1.87;;;;;;;15.87;43.55;93681.81;10532657;28;20289;-75
2021/01/24 09:52:20;;;;;;;3.90;1.58;;;;;;;15.45;43.25;93671.00;10531564;28;20121;-76
2021/01/24 09:57:20;;;;;;;9.00;1.70;;;;;;;14.83;44.34;93671.38;10531299;28;20042;-76
2021/01/24 10:02:21;;;;;;;6.07;1.73;;;;;;;15.47;43.27;93664.09;10531204;28;20081;-77
2021/01/24 10:07:21;;;;;;;18.97;4.37;;;;;;;15.20;43.57;93652.66;10531698;28;20020;-77
2021/01/24 10:12:21;;;;;;;6.77;1.50;;;;;;;14.90;43.15;93648.41;10530447;28;20055;-76
2021/01/24 10:17:22;;;;;;;13.07;2.40;;;;;;;14.28;43.29;93645.94;10530140;28;20406;-76
2021/01/24 10:22:22;;;;;;;16.73;1.83;;;;;;;16.83;39.79;93644.72;10529541;28;20048;-77
2021/01/24 10:27:23;;;;;;;10.30;1.83;;;;;;;19.16;35.21;93624.25;10529422;28;20266;-76
2021/01/24 10:32:23;;;;;;;12.57;2.30;;;;;;;21.29;32.32;93613.41;10515858;28;20023;-75
2021/01/24 10:37:23;;;;;;;25.17;2.73;;;;;;;24.51;27.32;93608.56;10486137;28;20032;-76
2021/01/24 10:42:24;;;;;;;6.22;1.48;;;;;;;25.46;25.37;93599.94;10504170;28;20115;-76
2021/01/24 10:47:25;;;;;;;6.43;1.37;;;;;;;25.64;24.97;93594.41;10498716;28;20032;-76
2021/01/24 10:52:25;;;;;;;6.72;1.30;;;;;;;24.19;26.77;93588.09;10514577;28;20661;-75
2021/01/24 10:57:26;;;;;;;7.25;1.42;;;;;;;21.39;28.75;93590.09;10524972;28;20034;-76
2021/01/24 11:02:26;;;;;;;4.57;1.00;;;;;;;20.69;29.80;93589.44;10525024;28;20123;-76
2021/01/24 11:07:27;;;;;;;6.97;1.33;;;;;;;18.03;32.92;93585.38;10523813;28;20499;-75
2021/01/24 11:12:27;;;;;;;3.67;1.08;;;;;;;17.20;33.80;93602.06;10524810;28;20028;-76
2021/01/24 11:17:28;;;;;;;3.25;1.20;;;;;;;16.15;37.75;93597.22;10520631;28;20139;-76
2021/01/24 11:22:28;;;;;;;8.73;1.00;;;;;;;15.01;37.61;93587.38;10503563;28;20048;-76
2021/01/24 11:27:29;;;;;;;5.60;0.77;;;;;;;13.76;39.02;93583.94;10521191;28;20042;-76
2021/01/24 11:32:29;;;;;;;4.65;1.00;;;;;;;13.41;40.15;93594.78;10523021;28;20028;-75
2021/01/24 11:37:29;;;;;;;2.47;0.77;;;;;;;12.54;42.48;93590.09;10524112;28;20093;-74
2021/01/24 11:42:30;;;;;;;3.00;0.67;;;;;;;11.75;45.04;93608.63;10526815;28;20145;-77
2021/01/24 11:47:31;;;;;;;1.43;0.70;;;;;;;11.69;45.43;93594.47;10522319;28;20858;-75
2021/01/24 11:52:31;;;;;;;2.25;1.13;;;;;;;11.16;46.11;93593.31;10534230;28;20354;-75
2021/01/24 11:57:32;;;;;;;1.23;0.60;;;;;;;11.20;45.84;93585.44;10535761;28;20046;-75
2021/01/24 12:02:32;;;;;;;1.38;0.50;;;;;;;11.46;45.34;93589.09;10534289;28;20020;-77
2021/01/24 12:07:33;;;;;;;1.63;0.50;;;;;;;11.33;45.46;93599.94;10534766;28;20046;-77
2021/01/24 12:12:33;;;;;;;0.85;0.32;;;;;;;11.80;45.45;93578.84;10517787;28;20028;-75
2021/01/24 12:17:34;;;;;;;2.73;1.30;;;;;;;11.35;46.02;93587.00;10517619;28;20449;-75
2021/01/24 12:22:34;;;;;;;7.63;1.03;;;;;;;11.52;47.12;93570.16;10508982;28;20290;-74
2021/01/24 12:27:34;;;;;;;3.23;0.60;;;;;;;11.42;47.44;93577.38;10492175;28;20290;-76
2021/01/24 12:32:35;;;;;;;1.02;0.30;;;;;;;11.36;47.58;93581.31;10495367;28;20291;-78
2021/01/24 12:37:36;;;;;;;3.22;0.50;;;;;;;11.46;48.67;93575.66;10492331;28;20040;-79
2021/01/24 12:42:36;;;;;;;3.95;1.33;;;;;;;11.42;48.55;93565.81;10494993;28;20489;-79
2021/01/24 12:47:38;;;;;;;1.90;0.60;;;;;;;11.29;47.47;93565.59;10477912;28;20464;-78
2021/01/24 12:52:38;;;;;;;1.75;0.30;;;;;;;11.39;45.19;93550.31;10495043;28;20025;-78
2021/01/24 12:57:39;;;;;;;3.23;0.30;;;;;;;11.32;45.61;93517.66;10493427;28;20025;-80
2021/01/24 13:02:39;;;;;;;1.65;0.70;;;;;;;11.71;46.80;93534.97;10492746;28;20020;-80
2021/01/24 13:07:40;;;;;;;5.43;0.80;;;;;;;12.08;46.36;93530.22;10494792;28;20047;-80
2021/01/24 13:12:40;;;;;;;4.18;1.77;;;;;;;12.31;46.78;93525.53;10494970;28;20062;-80
2021/01/24 13:17:40;;;;;;;1.50;0.53;;;;;;;12.51;44.64;93517.97;10494330;28;20052;-80
2021/01/24 13:22:41;;;;;;;5.17;1.17;;;;;;;12.61;45.68;93510.38;10518733;28;20290;-79
2021/01/24 13:27:41;;;;;;;9.18;1.35;;;;;;;12.67;44.95;93508.31;10531363;28;20040;-80
2021/01/24 13:32:42;;;;;;;7.93;2.30;;;;;;;12.28;46.19;93507.31;10531176;28;20472;-79
2021/01/24 13:37:42;;;;;;;4.23;0.70;;;;;;;12.08;46.67;93501.41;10531457;28;20274;-78
2021/01/24 13:42:42;;;;;;;7.00;1.10;;;;;;;12.02;46.13;93507.25;10529983;28;20027;-77
2021/01/24 13:47:43;;;;;;;3.80;0.63;;;;;;;12.12;46.05;93517.72;10527886;28;20034;-76
2021/01/24 13:52:43;;;;;;;5.10;0.65;;;;;;;12.09;46.69;93521.03;10530057;28;20286;-76
2021/01/24 13:57:44;;;;;;;1.33;0.50;;;;;;;11.93;45.99;93521.44;10532289;28;20028;-77
2021/01/24 14:02:44;;;;;;;1.25;0.40;;;;;;;11.46;46.38;93499.53;10531566;28;20028;-77
2021/01/24 14:07:44;;;;;;;2.50;0.63;;;;;;;11.16;47.23;93511.88;10532825;28;20036;-77
2021/01/24 14:12:45;;;;;;;5.23;1.27;;;;;;;11.09;48.20;93513.09;10532865;28;20475;-78
2021/01/24 14:17:45;;;;;;;1.42;0.80;;;;;;;11.16;49.30;93522.63;10530934;28;20028;-76
2021/01/24 14:22:46;;;;;;;20.17;1.50;;;;;;;11.20;49.08;93518.22;10531276;28;20048;-76
2021/01/24 14:27:47;;;;;;;17.50;1.50;;;;;;;11.16;48.12;93522.63;10530590;28;20498;-76
2021/01/24 14:32:48;;;;;;;9.63;2.25;;;;;;;11.10;48.74;93511.97;10529711;28;20553;-76
2021/01/24 14:37:49;;;;;;;11.57;1.63;;;;;;;11.00;47.70;93496.09;10528349;28;20505;-76
2021/01/24 14:42:51;;;;;;;2.33;0.50;;;;;;;10.83;47.53;93506.72;10482747;28;20046;-79
2021/01/24 14:47:51;;;;;;;12.20;0.95;;;;;;;10.68;47.24;93494.47;10498280;28;20266;-79
2021/01/24 14:52:52;;;;;;;6.47;1.13;;;;;;;10.66;48.16;93502.81;10531171;28;20482;-78
2021/01/24 14:57:52;;;;;;;2.20;0.95;;;;;;;10.45;48.69;93497.09;10506788;28;20544;-78
2021/01/24 15:02:53;;;;;;;2.58;0.90;;;;;;;10.43;48.51;93483.97;10530064;28;20054;-79
2021/01/24 15:07:56;;;;;;;2.07;1.07;;;;;;;10.29;48.14;93488.56;10530029;28;20047;-78
2021/01/24 15:12:56;;;;;;;0.93;0.52;;;;;;;10.19;48.21;93494.94;10530666;28;20028;-78
2021/01/24 15:17:57;;;;;;;3.63;1.03;;;;;;;10.21;47.00;93484.72;10511748;28;20036;-79
2021/01/24 15:22:58;;;;;;;2.47;0.80;;;;;;;10.13;47.27;93484.59;10511846;28;20297;-78
2021/01/24 15:27:58;;;;;;;1.10;0.60;;;;;;;10.04;46.60;93487.22;10530568;28;20027;-78
2021/01/24 15:32:59;;;;;;;6.23;0.50;;;;;;;10.17;46.29;93493.66;10522160;28;20036;-78
2021/01/24 15:37:59;;;;;;;3.50;0.70;;;;;;;10.24;45.67;93483.28;10510275;28;20281;-75
2021/01/24 15:42:59;;;;;;;4.53;0.87;;;;;;;10.30;45.69;93486.66;10502430;28;20032;-75
2021/01/24 15:48:00;;;;;;;12.10;1.50;;;;;;;10.34;46.30;93484.94;10512089;28;21183;-75
2021/01/24 15:53:00;;;;;;;3.53;0.95;;;;;;;10.24;47.32;93497.53;10528050;28;20390;-75
2021/01/24 15:58:01;;;;;;;3.45;0.88;;;;;;;10.14;48.91;93502.31;10513891;28;20328;-76
2021/01/24 16:03:02;;;;;;;3.73;0.60;;;;;;;10.08;50.11;93499.72;10508480;28;20032;-76
2021/01/24 16:08:02;;;;;;;2.53;0.80;;;;;;;10.14;50.19;93500.41;10522564;28;20032;-74
2021/01/24 16:13:03;;;;;;;3.42;0.70;;;;;;;10.12;50.70;93494.56;10521638;28;20483;-76
2021/01/24 16:18:04;;;;;;;4.95;1.52;;;;;;;9.97;51.97;93494.88;10521723;28;20053;-75
2021/01/24 16:23:04;;;;;;;2.75;1.38;;;;;;;9.90;52.77;93476.47;10519386;28;20056;-76
2021/01/24 16:28:05;;;;;;;3.70;0.67;;;;;;;9.95;51.76;93481.75;10487140;28;20021;-76
2021/01/24 16:33:06;;;;;;;6.60;0.55;;;;;;;10.00;51.98;93489.69;10476153;28;20028;-76
2021/01/24 16:38:06;;;;;;;2.83;0.75;;;;;;;10.00;52.71;93502.31;10493418;28;20035;-76
2021/01/24 16:43:08;;;;;;;5.43;1.00;;;;;;;10.08;52.39;93509.66;10475822;28;20490;-76
2021/01/24 16:48:09;;;;;;;2.95;1.50;;;;;;;10.12;52.59;93496.44;10493537;28;20123;-77
2021/01/24 16:53:10;;;;;;;2.55;0.75;;;;;;;10.14;52.90;93489.66;10492621;28;20024;-75
2021/01/24 16:58:12;;;;;;;4.28;1.30;;;;;;;10.08;53.13;93499.72;10492095;28;20108;-76
2021/01/24 17:03:12;;;;;;;4.13;1.15;;;;;;;10.15;53.47;93469.00;10491323;28;20028;-75
2021/01/24 17:08:12;;;;;;;1.67;0.90;;;;;;;10.17;53.54;93456.06;10492365;28;20400;-75
2021/01/24 17:13:13;;;;;;;5.67;1.10;;;;;;;10.17;53.41;93448.00;10492168;28;20074;-75
2021/01/24 17:18:13;;;;;;;3.50;0.98;;;;;;;10.12;53.89;93421.25;10487775;28;20027;-77
2021/01/24 17:23:15;;;;;;;1.50;0.90;;;;;;;10.15;53.76;93401.88;10565038;28;20435;-77
2021/01/24 17:28:15;;;;;;;2.80;0.82;;;;;;;10.21;53.83;93412.22;10558718;28;20024;-76
2021/01/24 17:33:15;;;;;;;7.35;2.17;;;;;;;10.17;53.88;93403.19;10575294;28;20024;-76
2021/01/24 17:38:16;;;;;;;8.03;2.43;;;;;;;10.13;53.37;93407.56;10575479;28;20026;-77
2021/01/24 17:43:16;;;;;;;5.90;2.15;;;;;;;9.96;54.68;93410.84;10540711;28;20267;-76
2021/01/24 17:48:18;;;;;;;4.17;1.80;;;;;;;10.00;54.92;93400.31;10515216;28;20027;-76
2021/01/24 17:53:18;;;;;;;7.22;2.95;;;;;;;10.05;54.34;93395.63;10526020;28;20290;-76
2021/01/24 17:58:19;;;;;;;4.57;1.35;;;;;;;9.94;53.87;93399.66;10513624;28;20498;-76
2021/01/24 18:03:19;;;;;;;6.97;2.08;;;;;;;9.90;54.40;93399.44;10508473;28;20032;-75
2021/01/24 18:08:21;;;;;;;5.30;1.23;;;;;;;9.86;55.15;93378.88;10526074;28;20028;-76
2021/01/24 18:13:21;;;;;;;4.13;1.50;;;;;;;9.87;54.52;93350.97;10524362;28;20042;-74
2021/01/24 18:18:54;;;;;;;2.57;1.10;;;;;;;9.91;55.08;93365.38;10525061;28;20085;-77
2021/01/24 18:23:54;;;;;;;14.20;3.30;;;;;;;9.89;54.94;93329.97;10482103;28;20048;-78
2021/01/24 18:28:55;;;;;;;6.87;2.00;;;;;;;9.91;55.29;93322.44;10526834;28;20498;-77
2021/01/24 18:33:55;;;;;;;3.13;1.20;;;;;;;10.11;54.72;93315.00;10510185;28;20042;-78
2021/01/24 18:38:56;;;;;;;4.37;1.77;;;;;;;10.14;54.49;93317.06;10510419;28;20274;-78
2021/01/24 18:43:56;;;;;;;4.15;1.25;;;;;;;10.34;52.40;93292.44;10527082;28;20016;-78
2021/01/24 18:48:56;;;;;;;3.63;1.03;;;;;;;10.47;51.59;93295.34;10530316;28;20093;-81
2021/01/24 18:53:59;;;;;;;5.20;2.55;;;;;;;10.36;52.95;93300.97;10526885;28;20028;-76
2021/01/24 18:59:00;;;;;;;7.18;2.25;;;;;;;10.31;52.33;93266.19;10529201;28;20097;-79
2021/01/24 19:04:00;;;;;;;6.70;1.45;;;;;;;10.36;54.87;93273.34;10513481;28;20097;-80
2021/01/24 19:09:00;;;;;;;6.70;3.00;;;;;;;10.02;54.61;93271.97;10531220;28;20127;-80
2021/01/24 19:14:01;;;;;;;16.33;4.00;;;;;;;9.56;57.12;93276.53;10519027;28;20662;-80
2021/01/24 19:19:01;;;;;;;10.55;5.07;;;;;;;9.32;58.74;93277.59;10529391;28;20566;-80
2021/01/24 19:24:02;;;;;;;16.65;6.20;;;;;;;9.04;64.49;93260.72;10510925;28;20052;-79
2021/01/24 19:29:03;;;;;;;29.27;8.88;;;;;;;8.72;68.61;93252.53;10529555;28;20072;-80
2021/01/24 19:34:04;;;;;;;17.92;7.50;;;;;;;8.41;70.62;93273.69;10531035;28;20110;-80
2021/01/24 19:39:06;;;;;;;18.83;6.35;;;;;;;8.39;68.45;93270.53;10525305;28;20539;-77
2021/01/24 19:44:06;;;;;;;18.38;6.65;;;;;;;8.43;71.24;93241.25;10509862;28;20020;-69
2021/01/24 19:49:06;;;;;;;12.70;5.22;;;;;;;8.36;69.66;93226.41;10527862;28;20410;-69
2021/01/24 19:54:07;;;;;;;15.93;5.07;;;;;;;8.42;70.03;93216.38;10528139;28;20028;-68
2021/01/24 19:59:07;;;;;;;11.68;5.32;;;;;;;8.14;71.59;93221.69;10524343;28;20281;-68
2021/01/24 20:04:08;;;;;;;14.70;6.03;;;;;;;8.01;73.07;93223.28;10531856;28;20020;-68
2021/01/24 20:09:09;;;;;;;25.30;5.97;;;;;;;8.14;75.31;93183.47;10534659;28;20038;-68
2021/01/24 20:14:09;;;;;;;25.80;6.80;;;;;;;8.24;74.41;93174.44;10534356;28;20063;-69
2021/01/24 20:19:10;;;;;;;16.95;5.70;;;;;;;8.35;73.47;93173.16;10518068;28;20153;-68
2021/01/24 20:24:11;;;;;;;12.60;5.88;;;;;;;8.45;71.77;93172.19;10502724;28;20056;-69
2021/01/24 20:29:11;;;;;;;19.70;5.88;;;;;;;8.52;73.44;93183.28;10517255;28;20058;-69
2021/01/24 20:34:14;;;;;;;13.70;5.17;;;;;;;8.41;76.87;93179.97;10492989;28;20028;-68
2021/01/24 20:39:15;;;;;;;17.08;5.93;;;;;;;8.38;80.11;93169.88;10509823;28;20284;-68
2021/01/24 20:44:15;;;;;;;16.40;5.00;;;;;;;8.33;80.22;93146.69;10534043;28;20034;-68
2021/01/24 20:49:16;;;;;;;9.30;3.65;;;;;;;8.22;77.40;93142.63;10515411;28;20023;-69
2021/01/24 20:54:16;;;;;;;9.03;3.10;;;;;;;8.32;76.80;93165.72;10532380;28;20028;-68
2021/01/24 20:59:17;;;;;;;12.68;2.65;;;;;;;8.16;80.51;93170.56;10532987;28;20154;-68
2021/01/24 21:04:17;;;;;;;10.05;2.22;;;;;;;8.07;81.88;93175.03;10516580;28;20024;-69
2021/01/24 21:09:18;;;;;;;6.60;2.83;;;;;;;8.14;85.05;93181.56;10529416;28;20134;-68
2021/01/24 21:14:18;;;;;;;7.83;2.80;;;;;;;7.95;85.51;93168.25;10532868;28;20039;-69
2021/01/24 21:19:19;;;;;;;9.60;3.37;;;;;;;7.87;88.32;93145.66;10525666;28;20676;-68
2021/01/24 21:24:19;;;;;;;10.18;3.70;;;;;;;7.93;88.09;93156.28;10519240;28;20547;-69
2021/01/24 21:29:19;;;;;;;13.88;3.47;;;;;;;7.84;89.74;93148.13;10495941;28;20471;-68
2021/01/24 21:34:20;;;;;;;17.63;5.03;;;;;;;7.85;90.74;93122.97;10498872;28;20035;-71
2021/01/24 21:39:20;;;;;;;8.60;4.30;;;;;;;7.79;89.96;93105.44;10474873;28;20278;-71
2021/01/24 21:44:21;;;;;;;11.32;3.80;;;;;;;7.64;92.05;93045.78;10474600;28;20420;-71
2021/01/24 21:49:21;;;;;;;9.23;4.05;;;;;;;7.27;93.83;93052.06;10492508;28;20033;-71
2021/01/24 21:54:22;;;;;;;11.60;4.20;;;;;;;6.95;99.73;93053.66;10491882;28;20017;-71
2021/01/24 21:59:22;;;;;;;13.47;4.40;;;;;;;7.14;100.00;93013.56;10516254;28;20278;-72
2021/01/24 22:04:22;;;;;;;10.05;3.83;;;;;;;7.26;96.81;93008.53;10491396;28;20275;-71
2021/01/24 22:09:23;;;;;;;14.52;5.40;;;;;;;7.26;99.09;93015.78;10473450;28;20063;-71
2021/01/24 22:14:23;;;;;;;10.43;4.63;;;;;;;7.06;100.00;93028.41;10506281;28;20036;-71
2021/01/24 22:19:24;;;;;;;12.97;4.63;;;;;;;7.15;100.00;93023.94;10491024;28;20024;-71
2021/01/24 22:24:24;;;;;;;17.42;6.85;;;;;;;6.97;100.00;93004.22;10490924;28;20290;-70
2021/01/24 22:29:25;;;;;;;14.30;6.30;;;;;;;6.68;100.00;93031.13;10471560;28;20120;-70
2021/01/24 22:34:25;;;;;;;17.52;6.75;;;;;;;6.73;100.00;93017.69;10489997;28;20116;-70
2021/01/24 22:39:26;;;;;;;18.17;8.50;;;;;;;6.64;100.00;93001.56;10490296;28;20033;-71
2021/01/24 22:44:26;;;;;;;22.30;10.40;;;;;;;6.56;100.00;92983.53;10490302;28;20258;-71
2021/01/24 22:49:26;;;;;;;20.80;10.32;;;;;;;6.65;100.00;92971.09;10489810;28;20459;-71
2021/01/24 22:54:27;;;;;;;25.87;12.20;;;;;;;6.67;100.00;93005.53;10489607;28;20103;-71
2021/01/24 22:59:27;;;;;;;31.20;14.33;;;;;;;6.84;100.00;92947.03;10505505;28;20650;-71
2021/01/24 23:04:27;;;;;;;28.53;11.67;;;;;;;6.91;100.00;92905.81;10489969;28;20352;-71
2021/01/24 23:09:28;;;;;;;18.03;9.23;;;;;;;6.93;100.00;92949.81;10471059;28;20403;-70
2021/01/24 23:14:28;;;;;;;19.90;8.90;;;;;;;7.05;100.00;92903.13;10489148;28;20305;-70
2021/01/24 23:19:29;;;;;;;20.07;7.40;;;;;;;7.06;100.00;92892.19;10488869;28;20039;-70